createdAt,value
2022-12-18T00:01:23.688Z,69.18
2022-12-18T00:03:52.196Z,69.17
2022-12-18T00:06:20.381Z,69.04
2022-12-18T00:08:47.678Z,69.09
2022-12-18T00:11:17.111Z,68.92
2022-12-18T00:13:44.655Z,68.93
2022-12-18T00:16:15.314Z,68.84
2022-12-18T00:18:42.808Z,68.68
2022-12-18T00:21:12.348Z,68.48
2022-12-18T00:23:41.711Z,68.66
2022-12-18T00:26:12.916Z,68.60
2022-12-18T00:28:39.638Z,68.55
2022-12-18T00:31:11.110Z,68.47
2022-12-18T00:33:39.036Z,68.53
2022-12-18T00:36:09.970Z,68.39
2022-12-18T00:38:37.942Z,68.36
2022-12-18T00:41:05.760Z,68.28
2022-12-18T00:43:37.157Z,68.19
2022-12-18T00:46:04.620Z,68.14
2022-12-18T00:48:32.818Z,68.04
2022-12-18T00:50:59.510Z,68.01
2022-12-18T00:53:26.280Z,68.09
2022-12-18T00:55:53.050Z,67.94
2022-12-18T00:58:19.731Z,68.01
2022-12-18T01:00:46.526Z,67.83
2022-12-18T01:03:14.688Z,67.84
2022-12-18T01:05:42.898Z,67.83
2022-12-18T01:08:10.007Z,67.72
2022-12-18T01:10:36.942Z,67.81
2022-12-18T01:13:03.734Z,67.77
2022-12-18T01:15:30.404Z,67.79
2022-12-18T01:17:57.285Z,67.81
2022-12-18T01:20:24.081Z,67.78
2022-12-18T01:22:50.789Z,67.86
2022-12-18T01:25:17.814Z,67.74
2022-12-18T01:27:44.612Z,67.66
2022-12-18T01:30:11.690Z,67.67
2022-12-18T01:32:38.554Z,67.55
2022-12-18T01:35:06.299Z,67.46
2022-12-18T01:37:33.077Z,67.49
2022-12-18T01:39:59.856Z,67.36
2022-12-18T01:42:26.642Z,67.33
2022-12-18T01:45:00.085Z,67.24
2022-12-18T01:47:26.874Z,67.13
2022-12-18T01:49:55.009Z,66.98
2022-12-18T01:52:25.886Z,67.11
2022-12-18T01:54:53.541Z,67.09
2022-12-18T01:57:22.480Z,66.88
2022-12-18T01:59:53.494Z,66.93
2022-12-18T02:02:21.683Z,66.72
2022-12-18T02:04:49.707Z,66.77
2022-12-18T02:07:46.296Z,66.64
2022-12-18T02:10:25.188Z,66.61
2022-12-18T02:13:07.601Z,66.56
2022-12-18T02:15:41.845Z,66.50
2022-12-18T02:18:14.951Z,66.48
2022-12-18T02:20:49.645Z,66.45
2022-12-18T02:23:48.240Z,66.57
2022-12-18T02:26:29.152Z,66.43
2022-12-18T02:29:02.767Z,66.57
2022-12-18T02:31:37.166Z,66.46
2022-12-18T02:34:07.237Z,66.20
2022-12-18T02:36:36.693Z,66.17
2022-12-18T02:39:06.854Z,66.05
2022-12-18T02:41:36.625Z,66.14
2022-12-18T02:44:09.362Z,65.95
2022-12-18T02:46:41.046Z,66.02
2022-12-18T02:49:22.235Z,66.02
2022-12-18T02:52:10.690Z,65.92
2022-12-18T02:55:02.476Z,65.86
2022-12-18T02:57:53.837Z,65.92
2022-12-18T03:00:32.070Z,65.88
2022-12-18T03:03:14.878Z,65.87
2022-12-18T03:05:47.311Z,65.80
2022-12-18T03:08:27.869Z,65.76
2022-12-18T03:11:07.259Z,65.72
2022-12-18T03:13:39.849Z,65.66
2022-12-18T03:16:11.625Z,65.58
2022-12-18T03:18:48.711Z,65.61
2022-12-18T03:21:28.909Z,65.58
2022-12-18T03:23:57.339Z,65.70
2022-12-18T03:26:28.365Z,65.55
2022-12-18T03:29:05.373Z,65.34
2022-12-18T03:31:33.401Z,65.34
2022-12-18T03:34:04.594Z,65.21
2022-12-18T03:36:32.125Z,65.15
2022-12-18T03:38:59.358Z,65.17
2022-12-18T03:41:39.952Z,65.07
2022-12-18T03:44:20.177Z,65.05
2022-12-18T03:46:53.123Z,65.16
2022-12-18T03:49:30.637Z,65.05
2022-12-18T03:52:05.430Z,65.17
2022-12-18T03:54:34.401Z,65.22
2022-12-18T03:57:23.088Z,65.08
2022-12-18T03:59:55.029Z,65.10
2022-12-18T04:02:24.095Z,65.09
2022-12-18T04:04:54.058Z,65.03
2022-12-18T04:07:21.736Z,64.94
2022-12-18T04:09:51.021Z,65.08
2022-12-18T04:12:17.775Z,65.23
2022-12-18T04:14:45.327Z,65.22
2022-12-18T04:17:12.783Z,65.34
2022-12-18T04:19:39.887Z,65.28
2022-12-18T04:22:10.819Z,65.26
2022-12-18T04:24:37.818Z,65.28
2022-12-18T04:27:05.121Z,65.17
2022-12-18T04:29:33.142Z,65.26
2022-12-18T04:31:59.954Z,65.17
2022-12-18T04:34:26.997Z,65.06
2022-12-18T04:36:53.751Z,64.97
2022-12-18T04:39:20.498Z,65.11
2022-12-18T04:41:47.291Z,65.06
2022-12-18T04:44:14.193Z,65.13
2022-12-18T04:46:41.014Z,65.30
2022-12-18T04:49:08.256Z,65.31
2022-12-18T04:51:34.931Z,65.32
2022-12-18T04:54:01.802Z,65.38
2022-12-18T04:56:28.538Z,65.38
2022-12-18T04:58:55.207Z,65.40
2022-12-18T05:01:22.063Z,65.45
2022-12-18T05:03:49.021Z,65.35
2022-12-18T05:06:15.725Z,65.40
2022-12-18T05:08:42.593Z,65.33
2022-12-18T05:11:12.661Z,65.38
2022-12-18T05:13:39.877Z,65.41
2022-12-18T05:16:08.746Z,65.33
2022-12-18T05:18:36.438Z,65.29
2022-12-18T05:21:03.847Z,65.32
2022-12-18T05:23:30.825Z,65.25
2022-12-18T05:26:00.006Z,65.33
2022-12-18T05:28:29.330Z,65.24
2022-12-18T05:30:59.246Z,65.15
2022-12-18T05:33:27.432Z,65.00
2022-12-18T05:35:59.157Z,65.04
2022-12-18T05:38:27.540Z,64.94
2022-12-18T05:40:54.844Z,64.99
2022-12-18T05:43:22.769Z,64.95
2022-12-18T05:45:50.525Z,64.97
2022-12-18T05:48:17.594Z,64.86
2022-12-18T05:50:46.670Z,64.99
2022-12-18T05:53:15.398Z,64.93
2022-12-18T05:55:43.856Z,64.96
2022-12-18T05:58:12.624Z,64.85
2022-12-18T06:00:41.986Z,64.76
2022-12-18T06:03:10.628Z,64.74
2022-12-18T06:05:40.407Z,64.63
2022-12-18T06:08:07.261Z,64.79
2022-12-18T06:10:34.069Z,64.93
2022-12-18T06:13:01.533Z,64.92
2022-12-18T06:15:28.554Z,65.05
2022-12-18T06:17:55.268Z,64.97
2022-12-18T06:20:22.095Z,65.08
2022-12-18T06:22:48.932Z,65.01
2022-12-18T06:25:16.434Z,64.98
2022-12-18T06:27:43.341Z,64.99
2022-12-18T06:30:11.993Z,65.09
2022-12-18T06:32:39.347Z,64.94
2022-12-18T06:35:07.090Z,64.92
2022-12-18T06:37:33.854Z,64.92
2022-12-18T06:40:01.465Z,64.72
2022-12-18T06:42:29.250Z,64.68
2022-12-18T06:44:56.037Z,64.73
2022-12-18T06:47:22.766Z,64.76
2022-12-18T06:49:49.545Z,64.73
2022-12-18T06:52:17.084Z,64.91
2022-12-18T06:54:43.824Z,64.90
2022-12-18T06:57:10.680Z,64.96
2022-12-18T06:59:37.462Z,64.75
2022-12-18T07:02:05.059Z,64.88
2022-12-18T07:04:32.527Z,64.83
2022-12-18T07:06:59.316Z,64.87
2022-12-18T07:09:26.203Z,64.76
2022-12-18T07:11:53.716Z,64.92
2022-12-18T07:14:20.536Z,64.95
2022-12-18T07:16:48.147Z,64.90
2022-12-18T07:19:15.367Z,64.89
2022-12-18T07:21:42.317Z,64.98
2022-12-18T07:24:09.061Z,64.73
2022-12-18T07:26:35.793Z,64.63
2022-12-18T07:29:02.618Z,64.92
2022-12-18T07:31:29.360Z,64.96
2022-12-18T07:33:56.421Z,64.89
2022-12-18T07:36:23.298Z,65.05
2022-12-18T07:38:52.357Z,65.08
2022-12-18T07:41:19.631Z,65.19
2022-12-18T07:43:46.999Z,65.27
2022-12-18T07:46:15.316Z,65.32
2022-12-18T07:48:44.246Z,65.39
2022-12-18T07:51:13.953Z,65.37
2022-12-18T07:53:41.815Z,65.21
2022-12-18T07:56:27.043Z,65.45
2022-12-18T07:58:57.070Z,65.50
2022-12-18T08:01:24.518Z,65.34
2022-12-18T08:03:52.104Z,65.53
2022-12-18T08:06:19.347Z,65.42
2022-12-18T08:08:50.712Z,65.50
2022-12-18T08:11:17.494Z,65.42
2022-12-18T08:13:44.292Z,65.48
2022-12-18T08:16:11.235Z,65.48
2022-12-18T08:18:38.263Z,65.49
2022-12-18T08:21:12.830Z,65.49
2022-12-18T08:23:43.079Z,65.54
2022-12-18T08:26:12.477Z,65.60
2022-12-18T08:28:39.761Z,65.62
2022-12-18T08:31:08.247Z,65.62
2022-12-18T08:33:36.850Z,65.71
2022-12-18T08:36:05.185Z,65.77
2022-12-18T08:38:33.482Z,65.75
2022-12-18T08:41:05.616Z,65.80
2022-12-18T08:43:50.908Z,65.84
2022-12-18T08:46:18.550Z,65.89
2022-12-18T08:48:45.805Z,66.13
2022-12-18T08:51:13.946Z,66.20
2022-12-18T08:53:41.193Z,66.45
2022-12-18T08:56:08.421Z,66.47
2022-12-18T08:58:35.192Z,66.74
2022-12-18T09:01:06.087Z,66.85
2022-12-18T09:03:34.658Z,67.01
2022-12-18T09:06:01.928Z,66.92
2022-12-18T09:08:29.651Z,67.04
2022-12-18T09:10:56.415Z,67.12
2022-12-18T09:13:23.598Z,67.24
2022-12-18T09:15:54.872Z,67.08
2022-12-18T09:18:23.791Z,67.12
2022-12-18T09:20:52.830Z,67.00
2022-12-18T09:23:20.180Z,66.95
2022-12-18T09:25:47.050Z,66.96
2022-12-18T09:28:16.125Z,66.87
2022-12-18T09:30:48.433Z,67.12
2022-12-18T09:33:16.516Z,67.13
2022-12-18T09:35:47.252Z,66.94
2022-12-18T09:38:19.967Z,67.03
2022-12-18T09:40:59.227Z,66.99
2022-12-18T09:43:50.681Z,67.11
2022-12-18T09:46:40.979Z,67.21
2022-12-18T09:49:15.256Z,67.43
2022-12-18T09:51:51.391Z,67.62
2022-12-18T09:54:40.097Z,67.80
2022-12-18T09:57:11.278Z,68.10
2022-12-18T09:59:42.417Z,68.33
2022-12-18T10:02:25.870Z,68.26
2022-12-18T10:05:15.602Z,68.55
2022-12-18T10:08:21.639Z,68.96
2022-12-18T10:10:55.498Z,68.94
2022-12-18T10:13:40.139Z,69.22
2022-12-18T10:16:54.597Z,68.87
2022-12-18T10:19:30.546Z,68.85
2022-12-18T10:22:16.003Z,69.04
2022-12-18T10:24:47.790Z,69.13
2022-12-18T10:27:18.188Z,69.00
2022-12-18T10:29:46.630Z,69.07
2022-12-18T10:32:23.030Z,69.11
2022-12-18T10:34:56.699Z,68.96
2022-12-18T10:37:29.272Z,69.03
2022-12-18T10:40:25.500Z,69.01
2022-12-18T10:43:12.617Z,69.10
2022-12-18T10:45:40.208Z,69.21
2022-12-18T10:48:22.909Z,69.15
2022-12-18T10:53:42.005Z,69.41
2022-12-18T10:56:11.793Z,69.50
2022-12-18T10:58:40.949Z,69.49
2022-12-18T11:01:14.940Z,69.44
2022-12-18T11:03:45.554Z,69.53
2022-12-18T11:06:19.065Z,69.81
2022-12-18T11:09:01.132Z,69.74
2022-12-18T11:11:29.676Z,69.68
2022-12-18T11:14:02.664Z,69.71
2022-12-18T11:16:34.363Z,70.07
2022-12-18T11:19:21.656Z,70.20
2022-12-18T11:21:49.715Z,70.26
2022-12-18T11:24:38.448Z,70.35
2022-12-18T11:27:16.220Z,70.48
2022-12-18T11:29:46.620Z,70.47
2022-12-18T11:32:39.909Z,70.53
2022-12-18T11:35:20.199Z,70.69
2022-12-18T11:37:58.129Z,70.58
2022-12-18T11:40:40.848Z,70.83
2022-12-18T11:43:42.831Z,70.94
2022-12-18T11:47:10.543Z,70.96
2022-12-18T11:49:42.052Z,71.02
2022-12-18T11:52:22.243Z,70.98
2022-12-18T11:54:52.646Z,70.93
2022-12-18T11:57:40.265Z,70.99
2022-12-18T12:00:56.112Z,71.08
2022-12-18T12:03:47.171Z,71.40
2022-12-18T12:06:15.134Z,71.37
2022-12-18T12:09:12.824Z,71.35
2022-12-18T12:11:55.088Z,71.45
2022-12-18T12:14:28.003Z,71.41
2022-12-18T12:17:28.220Z,71.58
2022-12-18T12:19:59.704Z,71.35
2022-12-18T12:22:58.788Z,71.34
2022-12-18T12:25:41.310Z,71.32
2022-12-18T12:28:47.338Z,71.28
2022-12-18T12:31:33.272Z,71.00
2022-12-18T12:34:07.862Z,71.05
2022-12-18T12:36:46.209Z,71.01
2022-12-18T12:39:24.066Z,71.07
2022-12-18T12:42:10.143Z,71.01
2022-12-18T12:44:55.665Z,70.92
2022-12-18T12:47:40.057Z,70.90
2022-12-18T12:50:18.897Z,70.83
2022-12-18T12:52:50.342Z,70.74
2022-12-18T12:55:29.235Z,71.02
2022-12-18T12:58:58.042Z,70.83
2022-12-18T13:01:31.371Z,70.98
2022-12-18T13:04:13.695Z,71.27
2022-12-18T13:06:50.871Z,71.08
2022-12-18T13:09:17.896Z,71.18
2022-12-18T13:12:06.216Z,71.19
2022-12-18T13:14:38.439Z,71.30
2022-12-18T13:17:29.729Z,71.32
2022-12-18T13:20:08.932Z,71.32
2022-12-18T13:22:39.869Z,71.48
2022-12-18T13:25:42.241Z,71.24
2022-12-18T13:28:16.690Z,71.35
2022-12-18T13:30:47.831Z,71.34
2022-12-18T13:33:18.591Z,71.32
2022-12-18T13:35:48.241Z,71.36
2022-12-18T13:38:37.120Z,71.58
2022-12-18T13:41:22.614Z,71.74
2022-12-18T13:43:53.112Z,71.72
2022-12-18T13:46:30.636Z,71.89
2022-12-18T13:49:03.423Z,71.94
2022-12-18T13:51:33.403Z,72.01
2022-12-18T13:54:14.450Z,72.21
2022-12-18T13:56:46.157Z,72.15
2022-12-18T13:59:26.735Z,72.45
2022-12-18T14:01:59.973Z,72.51
2022-12-18T14:04:35.115Z,72.60
2022-12-18T14:07:04.705Z,72.61
2022-12-18T14:09:36.721Z,72.60
2022-12-18T14:12:24.460Z,72.78
2022-12-18T14:14:55.160Z,72.77
2022-12-18T14:17:23.452Z,72.92
2022-12-18T14:19:51.984Z,73.06
2022-12-18T14:22:22.583Z,73.15
2022-12-18T14:25:25.768Z,73.17
2022-12-18T14:27:55.285Z,73.33
2022-12-18T14:30:45.475Z,73.36
2022-12-18T14:33:22.005Z,73.47
2022-12-18T14:36:06.054Z,73.53
2022-12-18T14:38:40.510Z,73.60
2022-12-18T14:41:16.234Z,73.58
2022-12-18T14:43:45.395Z,73.74
2022-12-18T14:46:33.962Z,73.70
2022-12-18T14:49:33.956Z,74.02
2022-12-18T14:52:06.796Z,74.09
2022-12-18T14:54:37.751Z,74.21
2022-12-18T14:57:26.980Z,74.11
2022-12-18T14:59:53.972Z,74.27
2022-12-18T15:02:27.245Z,74.17
2022-12-18T15:05:13.536Z,74.07
2022-12-18T15:07:51.423Z,74.05
2022-12-18T15:10:21.527Z,74.05
2022-12-18T15:13:08.257Z,74.33
2022-12-18T15:15:42.955Z,74.21
2022-12-18T15:18:12.859Z,74.30
2022-12-18T15:20:59.599Z,74.30
2022-12-18T15:23:26.354Z,74.38
2022-12-18T15:26:02.900Z,74.39
2022-12-18T15:28:39.109Z,74.48
2022-12-18T15:31:11.863Z,74.54
2022-12-18T15:33:45.161Z,74.65
2022-12-18T15:36:24.010Z,74.55
2022-12-18T15:38:56.048Z,74.62
2022-12-18T15:42:09.949Z,74.55
2022-12-18T15:44:37.793Z,74.42
2022-12-18T15:47:11.841Z,74.60
2022-12-18T15:49:38.833Z,74.66
2022-12-18T15:52:06.135Z,74.60
2022-12-18T15:54:53.858Z,74.61
2022-12-18T15:57:23.186Z,74.77
2022-12-18T15:59:53.147Z,74.93
2022-12-18T16:02:22.943Z,74.80
2022-12-18T16:04:51.017Z,74.86
2022-12-18T16:07:22.922Z,75.00
2022-12-18T16:09:52.925Z,75.09
2022-12-18T16:12:25.461Z,75.02
2022-12-18T16:14:52.866Z,75.22
2022-12-18T16:17:20.440Z,75.23
2022-12-18T16:19:47.241Z,75.25
2022-12-18T16:22:25.746Z,75.37
2022-12-18T16:24:54.955Z,75.37
2022-12-18T16:27:23.588Z,75.51
2022-12-18T16:29:51.045Z,75.47
2022-12-18T16:32:20.731Z,75.61
2022-12-18T16:34:47.892Z,75.62
2022-12-18T16:37:15.769Z,75.70
2022-12-18T16:39:43.208Z,75.76
2022-12-18T16:42:17.503Z,75.55
2022-12-18T16:44:46.782Z,75.70
2022-12-18T16:47:15.209Z,75.77
2022-12-18T16:49:45.337Z,75.92
2022-12-18T16:52:13.115Z,75.85
2022-12-18T16:54:40.205Z,75.90
2022-12-18T16:57:08.624Z,75.83
2022-12-18T16:59:35.528Z,75.98
2022-12-18T17:02:06.336Z,76.12
2022-12-18T17:04:33.713Z,76.22
2022-12-18T17:07:01.010Z,76.15
2022-12-18T17:09:27.855Z,76.30
2022-12-18T17:11:55.357Z,76.28
2022-12-18T17:14:24.243Z,76.44
2022-12-18T17:17:19.848Z,76.34
2022-12-18T17:19:43.401Z,76.30
2022-12-18T17:22:10.215Z,76.37
2022-12-18T17:24:37.006Z,76.45
2022-12-18T17:27:04.569Z,76.35
2022-12-18T17:29:32.763Z,76.30
2022-12-18T17:32:00.509Z,76.35
2022-12-18T17:34:28.255Z,76.26
2022-12-18T17:36:55.826Z,76.46
2022-12-18T17:39:22.898Z,76.41
2022-12-18T17:41:50.005Z,76.54
2022-12-18T17:44:18.185Z,76.56
2022-12-18T17:46:46.187Z,76.33
2022-12-18T17:49:14.303Z,76.21
2022-12-18T17:51:52.642Z,76.49
2022-12-18T17:54:41.093Z,76.36
2022-12-18T17:57:11.048Z,76.62
2022-12-18T17:59:38.072Z,76.44
2022-12-18T18:02:06.962Z,76.56
2022-12-18T18:04:34.082Z,76.66
2022-12-18T18:07:02.064Z,76.58
2022-12-18T18:09:29.207Z,76.65
2022-12-18T18:12:15.014Z,76.68
2022-12-18T18:14:41.930Z,76.62
2022-12-18T18:17:08.869Z,76.68
2022-12-18T18:19:35.726Z,76.78
2022-12-18T18:22:03.130Z,76.74
2022-12-18T18:24:33.013Z,76.74
2022-12-18T18:26:59.829Z,76.71
2022-12-18T18:29:29.803Z,76.56
2022-12-18T18:31:56.806Z,76.57
2022-12-18T18:34:26.273Z,76.80
2022-12-18T18:36:53.755Z,76.73
2022-12-18T18:39:21.081Z,76.76
2022-12-18T18:41:48.759Z,76.58
2022-12-18T18:44:17.268Z,76.69
2022-12-18T18:46:53.940Z,76.84
2022-12-18T18:49:23.687Z,76.71
2022-12-18T18:51:51.690Z,76.73
2022-12-18T18:54:20.806Z,76.60
2022-12-18T18:59:37.945Z,76.78
2022-12-18T19:02:05.342Z,76.68
2022-12-18T19:04:35.947Z,76.80
2022-12-18T19:07:04.772Z,76.56
2022-12-18T19:09:32.133Z,76.63
2022-12-18T19:12:19.694Z,76.68
2022-12-18T19:14:46.843Z,76.59
2022-12-18T19:17:13.636Z,76.48
2022-12-18T19:19:40.676Z,76.69
2022-12-18T19:22:08.925Z,76.46
2022-12-18T19:24:36.218Z,76.54
2022-12-18T19:27:03.422Z,76.45
2022-12-18T19:29:30.404Z,76.57
2022-12-18T19:31:57.204Z,76.58
2022-12-18T19:34:24.053Z,76.54
2022-12-18T19:36:55.274Z,76.52
2022-12-18T19:39:26.266Z,76.55
2022-12-18T19:41:53.086Z,76.38
2022-12-18T19:44:21.065Z,76.57
2022-12-18T19:46:51.591Z,76.39
2022-12-18T19:49:18.563Z,76.51
2022-12-18T19:51:45.756Z,76.27
2022-12-18T19:54:16.692Z,76.46
2022-12-18T19:56:45.290Z,76.59
2022-12-18T19:59:13.497Z,76.54
2022-12-18T20:01:40.866Z,76.45
2022-12-18T20:04:07.918Z,76.47
2022-12-18T20:06:53.384Z,76.61
2022-12-18T20:09:20.972Z,76.57
2022-12-18T20:11:48.952Z,76.46
2022-12-18T20:14:16.897Z,76.61
2022-12-18T20:16:51.744Z,76.48
2022-12-18T20:19:18.734Z,76.58
2022-12-18T20:21:45.814Z,76.45
2022-12-18T20:24:12.707Z,76.50
2022-12-18T20:26:40.147Z,76.52
2022-12-18T20:29:07.041Z,76.47
2022-12-18T20:31:34.005Z,76.51
2022-12-18T20:34:02.647Z,76.52
2022-12-18T20:36:31.863Z,76.31
2022-12-18T20:39:03.857Z,76.43
2022-12-18T20:41:33.523Z,76.44
2022-12-18T20:44:09.847Z,76.52
2022-12-18T20:46:56.172Z,76.49
2022-12-18T20:49:25.329Z,76.44
2022-12-18T20:51:55.602Z,76.44
2022-12-18T20:54:24.379Z,76.45
2022-12-18T20:56:51.519Z,76.27
2022-12-18T20:59:19.544Z,76.43
2022-12-18T21:01:48.863Z,76.20
2022-12-18T21:04:18.224Z,76.14
2022-12-18T21:06:51.312Z,76.48
2022-12-18T21:09:21.149Z,76.52
2022-12-18T21:12:07.744Z,76.47
2022-12-18T21:14:39.867Z,76.38
2022-12-18T21:17:06.920Z,76.56
2022-12-18T21:19:36.918Z,76.39
2022-12-18T21:22:04.451Z,76.29
2022-12-18T21:24:32.672Z,76.51
2022-12-18T21:26:59.903Z,76.31
2022-12-18T21:29:27.216Z,76.34
2022-12-18T21:31:54.471Z,76.36
2022-12-18T21:34:28.622Z,76.40
2022-12-18T21:36:58.654Z,76.36
2022-12-18T21:39:28.642Z,76.30
2022-12-18T21:42:15.849Z,76.34
2022-12-18T21:44:44.180Z,76.38
2022-12-18T21:47:20.862Z,76.37
2022-12-18T21:49:52.146Z,76.20
2022-12-18T21:52:21.563Z,76.43
2022-12-18T21:54:50.841Z,76.24
2022-12-18T21:57:18.229Z,76.37
2022-12-18T21:59:45.164Z,76.28
2022-12-18T22:02:15.906Z,76.29
2022-12-18T22:04:45.423Z,76.30
2022-12-18T22:07:14.555Z,76.31
2022-12-18T22:09:42.475Z,76.27
2022-12-18T22:12:11.996Z,76.38
2022-12-18T22:14:38.760Z,76.37
2022-12-18T22:17:05.804Z,76.48
2022-12-18T22:19:38.118Z,76.36
2022-12-18T22:22:09.682Z,76.44
2022-12-18T22:24:36.515Z,76.66
2022-12-18T22:27:03.269Z,76.35
2022-12-18T22:29:48.690Z,76.41
2022-12-18T22:32:16.606Z,76.52
2022-12-18T22:34:44.840Z,76.21
2022-12-18T22:37:12.102Z,76.32
2022-12-18T22:39:39.558Z,76.32
2022-12-18T22:42:07.114Z,76.28
2022-12-18T22:44:33.942Z,76.45
2022-12-18T22:47:06.455Z,76.30
2022-12-18T22:49:34.846Z,76.49
2022-12-18T22:52:03.615Z,76.19
2022-12-18T22:54:30.443Z,76.45
2022-12-18T22:56:57.534Z,76.31
2022-12-18T22:59:24.449Z,76.41
2022-12-18T23:01:58.451Z,76.32
2022-12-18T23:04:36.207Z,76.37
2022-12-18T23:07:05.671Z,76.31
2022-12-18T23:09:33.018Z,76.28
2022-12-18T23:12:00.279Z,76.44
2022-12-18T23:14:28.128Z,76.29
2022-12-18T23:16:56.033Z,76.36
2022-12-18T23:19:24.129Z,76.30
2022-12-18T23:21:51.544Z,76.35
2022-12-18T23:24:18.373Z,76.31
2022-12-18T23:26:46.517Z,76.21
2022-12-18T23:29:13.219Z,76.29
2022-12-18T23:31:40.213Z,76.28
2022-12-18T23:34:07.557Z,76.18
2022-12-18T23:36:45.715Z,76.21
2022-12-18T23:39:29.065Z,76.23
2022-12-18T23:41:58.113Z,76.21
2022-12-18T23:44:25.250Z,76.09
2022-12-18T23:46:52.204Z,76.08
2022-12-18T23:49:18.989Z,76.22
2022-12-18T23:51:45.817Z,76.22
2022-12-18T23:54:12.513Z,76.01
2022-12-18T23:56:39.249Z,76.00
2022-12-18T23:59:06.280Z,75.90
